sensor_id;sensor_type;location;lat;lon;timestamp;P1;durP1;ratioP1;P2;durP2;ratioP2
46288;SDS011;32022;46.158;14.604;2022-07-29T00:02:05;4.00;;;2.20;;
46288;SDS011;32022;46.158;14.604;2022-07-29T00:04:31;3.87;;;2.17;;
46288;SDS011;32022;46.158;14.604;2022-07-29T00:06:58;3.35;;;1.90;;
46288;SDS011;32022;46.158;14.604;2022-07-29T00:09:23;3.57;;;2.07;;
46288;SDS011;32022;46.158;14.604;2022-07-29T00:11:49;3.80;;;2.10;;
46288;SDS011;32022;46.158;14.604;2022-07-29T00:14:14;3.07;;;1.90;;
46288;SDS011;32022;46.158;14.604;2022-07-29T00:16:39;3.40;;;2.17;;
46288;SDS011;32022;46.158;14.604;2022-07-29T00:19:05;3.45;;;2.15;;
46288;SDS011;32022;46.158;14.604;2022-07-29T00:21:30;5.43;;;2.13;;
46288;SDS011;32022;46.158;14.604;2022-07-29T00:23:55;3.80;;;2.00;;
46288;SDS011;32022;46.158;14.604;2022-07-29T00:26:20;3.17;;;1.90;;
46288;SDS011;32022;46.158;14.604;2022-07-29T00:28:46;3.30;;;2.10;;
46288;SDS011;32022;46.158;14.604;2022-07-29T00:31:11;4.10;;;2.40;;
46288;SDS011;32022;46.158;14.604;2022-07-29T00:33:37;3.45;;;2.20;;
46288;SDS011;32022;46.158;14.604;2022-07-29T00:36:02;3.58;;;2.22;;
46288;SDS011;32022;46.158;14.604;2022-07-29T00:38:27;3.40;;;1.88;;
46288;SDS011;32022;46.158;14.604;2022-07-29T00:40:52;3.40;;;2.10;;
46288;SDS011;32022;46.158;14.604;2022-07-29T00:43:18;3.27;;;1.90;;
46288;SDS011;32022;46.158;14.604;2022-07-29T00:45:43;4.07;;;2.10;;
46288;SDS011;32022;46.158;14.604;2022-07-29T00:48:08;3.10;;;1.95;;
46288;SDS011;32022;46.158;14.604;2022-07-29T00:50:34;3.10;;;1.98;;
46288;SDS011;32022;46.158;14.604;2022-07-29T00:53:00;3.63;;;1.98;;
46288;SDS011;32022;46.158;14.604;2022-07-29T00:55:25;3.83;;;2.30;;
46288;SDS011;32022;46.158;14.604;2022-07-29T00:57:51;3.83;;;1.90;;
46288;SDS011;32022;46.158;14.604;2022-07-29T01:00:18;3.45;;;2.25;;
46288;SDS011;32022;46.158;14.604;2022-07-29T01:02:44;3.33;;;2.10;;
46288;SDS011;32022;46.158;14.604;2022-07-29T01:05:09;3.63;;;2.15;;
46288;SDS011;32022;46.158;14.604;2022-07-29T01:07:35;3.30;;;1.88;;
46288;SDS011;32022;46.158;14.604;2022-07-29T01:10:02;3.58;;;1.83;;
46288;SDS011;32022;46.158;14.604;2022-07-29T01:12:28;3.00;;;1.90;;
46288;SDS011;32022;46.158;14.604;2022-07-29T01:14:56;3.20;;;2.05;;
46288;SDS011;32022;46.158;14.604;2022-07-29T01:25:25;3.30;;;2.10;;
46288;SDS011;32022;46.158;14.604;2022-07-29T01:28:01;3.72;;;1.90;;
46288;SDS011;32022;46.158;14.604;2022-07-29T01:30:33;3.55;;;1.88;;
46288;SDS011;32022;46.158;14.604;2022-07-29T01:33:02;4.85;;;2.00;;
46288;SDS011;32022;46.158;14.604;2022-07-29T01:35:33;2.88;;;1.83;;
46288;SDS011;32022;46.158;14.604;2022-07-29T01:38:08;3.13;;;1.80;;
46288;SDS011;32022;46.158;14.604;2022-07-29T01:40:35;3.22;;;1.60;;
46288;SDS011;32022;46.158;14.604;2022-07-29T01:43:06;2.75;;;1.70;;
46288;SDS011;32022;46.158;14.604;2022-07-29T01:45:40;2.60;;;1.70;;
46288;SDS011;32022;46.158;14.604;2022-07-29T01:50:54;2.65;;;1.80;;
46288;SDS011;32022;46.158;14.604;2022-07-29T01:53:23;3.00;;;1.67;;
46288;SDS011;32022;46.158;14.604;2022-07-29T01:55:50;2.92;;;1.70;;
46288;SDS011;32022;46.158;14.604;2022-07-29T01:58:17;3.55;;;1.70;;
46288;SDS011;32022;46.158;14.604;2022-07-29T02:00:42;2.80;;;1.70;;
46288;SDS011;32022;46.158;14.604;2022-07-29T02:03:09;2.72;;;1.63;;
46288;SDS011;32022;46.158;14.604;2022-07-29T02:05:36;2.72;;;1.83;;
46288;SDS011;32022;46.158;14.604;2022-07-29T02:08:02;3.10;;;1.67;;
46288;SDS011;32022;46.158;14.604;2022-07-29T02:10:29;3.00;;;1.60;;
46288;SDS011;32022;46.158;14.604;2022-07-29T02:12:56;2.83;;;1.70;;
46288;SDS011;32022;46.158;14.604;2022-07-29T02:15:22;2.58;;;1.60;;
46288;SDS011;32022;46.158;14.604;2022-07-29T02:17:50;2.63;;;1.70;;
46288;SDS011;32022;46.158;14.604;2022-07-29T02:20:16;2.70;;;1.50;;
46288;SDS011;32022;46.158;14.604;2022-07-29T02:22:41;2.90;;;1.60;;
46288;SDS011;32022;46.158;14.604;2022-07-29T02:25:07;4.07;;;1.88;;
46288;SDS011;32022;46.158;14.604;2022-07-29T02:27:33;2.90;;;1.55;;
46288;SDS011;32022;46.158;14.604;2022-07-29T02:29:59;4.32;;;1.58;;
46288;SDS011;32022;46.158;14.604;2022-07-29T02:32:25;3.00;;;1.58;;
46288;SDS011;32022;46.158;14.604;2022-07-29T02:34:52;3.33;;;1.70;;
46288;SDS011;32022;46.158;14.604;2022-07-29T02:37:17;3.08;;;1.75;;
46288;SDS011;32022;46.158;14.604;2022-07-29T02:39:43;3.03;;;1.50;;
46288;SDS011;32022;46.158;14.604;2022-07-29T02:42:10;3.00;;;1.63;;
46288;SDS011;32022;46.158;14.604;2022-07-29T02:44:36;2.70;;;1.63;;
46288;SDS011;32022;46.158;14.604;2022-07-29T02:47:04;2.45;;;1.60;;
46288;SDS011;32022;46.158;14.604;2022-07-29T02:49:41;3.78;;;1.73;;
46288;SDS011;32022;46.158;14.604;2022-07-29T02:54:39;3.07;;;1.40;;
46288;SDS011;32022;46.158;14.604;2022-07-29T02:57:19;2.60;;;1.45;;
46288;SDS011;32022;46.158;14.604;2022-07-29T02:59:45;2.55;;;1.40;;
46288;SDS011;32022;46.158;14.604;2022-07-29T03:02:12;3.78;;;1.60;;
46288;SDS011;32022;46.158;14.604;2022-07-29T03:04:39;3.78;;;1.52;;
46288;SDS011;32022;46.158;14.604;2022-07-29T03:07:05;3.00;;;1.77;;
46288;SDS011;32022;46.158;14.604;2022-07-29T03:09:30;2.55;;;1.50;;
46288;SDS011;32022;46.158;14.604;2022-07-29T03:11:56;3.33;;;1.42;;
46288;SDS011;32022;46.158;14.604;2022-07-29T03:14:22;2.30;;;1.33;;
46288;SDS011;32022;46.158;14.604;2022-07-29T03:16:48;2.92;;;1.60;;
46288;SDS011;32022;46.158;14.604;2022-07-29T03:19:13;2.38;;;1.48;;
46288;SDS011;32022;46.158;14.604;2022-07-29T03:21:39;3.22;;;1.70;;
46288;SDS011;32022;46.158;14.604;2022-07-29T03:24:04;2.83;;;1.50;;
46288;SDS011;32022;46.158;14.604;2022-07-29T03:26:30;3.33;;;1.55;;
46288;SDS011;32022;46.158;14.604;2022-07-29T03:28:55;4.00;;;1.57;;
46288;SDS011;32022;46.158;14.604;2022-07-29T03:31:20;3.10;;;1.60;;
46288;SDS011;32022;46.158;14.604;2022-07-29T03:33:45;2.40;;;1.58;;
46288;SDS011;32022;46.158;14.604;2022-07-29T03:36:11;2.33;;;1.40;;
46288;SDS011;32022;46.158;14.604;2022-07-29T03:38:36;2.58;;;1.65;;
46288;SDS011;32022;46.158;14.604;2022-07-29T03:41:07;2.50;;;1.42;;
46288;SDS011;32022;46.158;14.604;2022-07-29T03:43:34;2.65;;;1.63;;
46288;SDS011;32022;46.158;14.604;2022-07-29T03:46:00;2.45;;;1.50;;
46288;SDS011;32022;46.158;14.604;2022-07-29T03:48:26;2.80;;;1.63;;
46288;SDS011;32022;46.158;14.604;2022-07-29T03:50:54;2.63;;;1.50;;
46288;SDS011;32022;46.158;14.604;2022-07-29T03:53:20;2.53;;;1.40;;
46288;SDS011;32022;46.158;14.604;2022-07-29T03:55:47;3.13;;;1.42;;
46288;SDS011;32022;46.158;14.604;2022-07-29T03:58:13;2.40;;;1.38;;
46288;SDS011;32022;46.158;14.604;2022-07-29T04:00:39;3.70;;;1.40;;
46288;SDS011;32022;46.158;14.604;2022-07-29T04:03:05;2.58;;;1.60;;
46288;SDS011;32022;46.158;14.604;2022-07-29T04:05:30;2.58;;;1.40;;
46288;SDS011;32022;46.158;14.604;2022-07-29T04:07:55;2.60;;;1.42;;
46288;SDS011;32022;46.158;14.604;2022-07-29T04:10:20;2.80;;;1.50;;
46288;SDS011;32022;46.158;14.604;2022-07-29T04:12:46;3.57;;;1.70;;
46288;SDS011;32022;46.158;14.604;2022-07-29T04:15:11;4.03;;;1.73;;
46288;SDS011;32022;46.158;14.604;2022-07-29T04:17:36;2.50;;;1.40;;
46288;SDS011;32022;46.158;14.604;2022-07-29T04:20:02;3.03;;;1.60;;
46288;SDS011;32022;46.158;14.604;2022-07-29T04:22:27;2.65;;;1.40;;
46288;SDS011;32022;46.158;14.604;2022-07-29T04:24:53;2.83;;;1.50;;
46288;SDS011;32022;46.158;14.604;2022-07-29T04:27:18;3.13;;;1.50;;
46288;SDS011;32022;46.158;14.604;2022-07-29T04:29:43;4.20;;;1.73;;
46288;SDS011;32022;46.158;14.604;2022-07-29T04:32:08;5.25;;;1.58;;
46288;SDS011;32022;46.158;14.604;2022-07-29T04:34:34;3.13;;;1.50;;
46288;SDS011;32022;46.158;14.604;2022-07-29T04:36:59;3.97;;;1.60;;
46288;SDS011;32022;46.158;14.604;2022-07-29T04:39:25;2.47;;;1.40;;
46288;SDS011;32022;46.158;14.604;2022-07-29T04:41:50;3.67;;;1.63;;
46288;SDS011;32022;46.158;14.604;2022-07-29T04:44:16;4.28;;;1.50;;
46288;SDS011;32022;46.158;14.604;2022-07-29T04:46:41;3.60;;;1.50;;
46288;SDS011;32022;46.158;14.604;2022-07-29T04:49:06;2.93;;;1.40;;
46288;SDS011;32022;46.158;14.604;2022-07-29T04:51:31;2.60;;;1.40;;
46288;SDS011;32022;46.158;14.604;2022-07-29T04:53:57;5.43;;;1.60;;
46288;SDS011;32022;46.158;14.604;2022-07-29T04:56:22;3.83;;;1.50;;
46288;SDS011;32022;46.158;14.604;2022-07-29T04:58:47;3.83;;;1.63;;
46288;SDS011;32022;46.158;14.604;2022-07-29T05:01:13;3.80;;;1.53;;
46288;SDS011;32022;46.158;14.604;2022-07-29T05:03:39;2.92;;;1.50;;
46288;SDS011;32022;46.158;14.604;2022-07-29T05:06:04;4.65;;;1.52;;
46288;SDS011;32022;46.158;14.604;2022-07-29T05:08:29;3.92;;;1.50;;
46288;SDS011;32022;46.158;14.604;2022-07-29T05:10:54;3.13;;;1.43;;
46288;SDS011;32022;46.158;14.604;2022-07-29T05:13:20;3.10;;;1.30;;
46288;SDS011;32022;46.158;14.604;2022-07-29T05:15:45;3.33;;;1.57;;
46288;SDS011;32022;46.158;14.604;2022-07-29T05:18:10;2.78;;;1.50;;
46288;SDS011;32022;46.158;14.604;2022-07-29T05:20:35;5.47;;;1.60;;
46288;SDS011;32022;46.158;14.604;2022-07-29T05:23:01;4.57;;;1.30;;
46288;SDS011;32022;46.158;14.604;2022-07-29T05:25:27;3.83;;;1.40;;
46288;SDS011;32022;46.158;14.604;2022-07-29T05:27:53;4.00;;;1.58;;
46288;SDS011;32022;46.158;14.604;2022-07-29T05:30:19;3.17;;;1.30;;
46288;SDS011;32022;46.158;14.604;2022-07-29T05:32:45;4.25;;;1.60;;
46288;SDS011;32022;46.158;14.604;2022-07-29T05:35:11;2.85;;;1.17;;
46288;SDS011;32022;46.158;14.604;2022-07-29T05:37:36;3.42;;;1.42;;
46288;SDS011;32022;46.158;14.604;2022-07-29T05:40:02;2.85;;;1.40;;
46288;SDS011;32022;46.158;14.604;2022-07-29T05:42:27;3.33;;;1.42;;
46288;SDS011;32022;46.158;14.604;2022-07-29T05:44:54;2.95;;;1.40;;
46288;SDS011;32022;46.158;14.604;2022-07-29T05:47:19;3.33;;;1.38;;
46288;SDS011;32022;46.158;14.604;2022-07-29T05:49:44;2.77;;;1.40;;
46288;SDS011;32022;46.158;14.604;2022-07-29T05:52:11;4.63;;;1.85;;
46288;SDS011;32022;46.158;14.604;2022-07-29T05:54:36;3.50;;;1.60;;
46288;SDS011;32022;46.158;14.604;2022-07-29T05:57:02;3.95;;;1.42;;
46288;SDS011;32022;46.158;14.604;2022-07-29T05:59:27;4.20;;;1.58;;
46288;SDS011;32022;46.158;14.604;2022-07-29T06:01:52;2.97;;;1.50;;
46288;SDS011;32022;46.158;14.604;2022-07-29T06:04:17;4.63;;;1.75;;
46288;SDS011;32022;46.158;14.604;2022-07-29T06:06:42;4.30;;;1.60;;
46288;SDS011;32022;46.158;14.604;2022-07-29T06:09:08;7.30;;;1.70;;
46288;SDS011;32022;46.158;14.604;2022-07-29T06:11:33;3.50;;;1.50;;
46288;SDS011;32022;46.158;14.604;2022-07-29T06:13:58;4.87;;;1.80;;
46288;SDS011;32022;46.158;14.604;2022-07-29T06:16:23;5.70;;;1.83;;
46288;SDS011;32022;46.158;14.604;2022-07-29T06:18:49;5.43;;;1.63;;
46288;SDS011;32022;46.158;14.604;2022-07-29T06:21:14;4.78;;;2.20;;
46288;SDS011;32022;46.158;14.604;2022-07-29T06:23:39;4.77;;;1.63;;
46288;SDS011;32022;46.158;14.604;2022-07-29T06:26:04;4.95;;;1.80;;
46288;SDS011;32022;46.158;14.604;2022-07-29T06:28:30;4.20;;;1.50;;
46288;SDS011;32022;46.158;14.604;2022-07-29T06:30:55;5.85;;;2.17;;
46288;SDS011;32022;46.158;14.604;2022-07-29T06:33:20;5.60;;;1.63;;
46288;SDS011;32022;46.158;14.604;2022-07-29T06:35:45;4.55;;;1.70;;
46288;SDS011;32022;46.158;14.604;2022-07-29T06:38:12;4.82;;;2.03;;
46288;SDS011;32022;46.158;14.604;2022-07-29T06:40:40;3.08;;;1.52;;
46288;SDS011;32022;46.158;14.604;2022-07-29T06:43:24;5.47;;;1.70;;
46288;SDS011;32022;46.158;14.604;2022-07-29T06:45:49;4.37;;;1.70;;
46288;SDS011;32022;46.158;14.604;2022-07-29T06:48:14;5.80;;;1.90;;
46288;SDS011;32022;46.158;14.604;2022-07-29T06:50:39;5.97;;;1.63;;
46288;SDS011;32022;46.158;14.604;2022-07-29T06:53:05;5.40;;;1.80;;
46288;SDS011;32022;46.158;14.604;2022-07-29T06:55:30;3.80;;;1.75;;
46288;SDS011;32022;46.158;14.604;2022-07-29T06:57:56;5.10;;;1.80;;
46288;SDS011;32022;46.158;14.604;2022-07-29T07:00:21;4.53;;;1.80;;
46288;SDS011;32022;46.158;14.604;2022-07-29T07:02:46;3.33;;;1.83;;
46288;SDS011;32022;46.158;14.604;2022-07-29T07:05:11;3.80;;;1.70;;
46288;SDS011;32022;46.158;14.604;2022-07-29T07:07:37;3.43;;;1.60;;
46288;SDS011;32022;46.158;14.604;2022-07-29T07:10:02;4.80;;;1.83;;
46288;SDS011;32022;46.158;14.604;2022-07-29T07:12:27;3.58;;;1.77;;
46288;SDS011;32022;46.158;14.604;2022-07-29T07:14:52;5.00;;;1.70;;
46288;SDS011;32022;46.158;14.604;2022-07-29T07:17:18;2.73;;;1.63;;
46288;SDS011;32022;46.158;14.604;2022-07-29T07:19:43;3.60;;;1.70;;
46288;SDS011;32022;46.158;14.604;2022-07-29T07:22:08;2.83;;;1.60;;
46288;SDS011;32022;46.158;14.604;2022-07-29T07:24:33;3.37;;;1.70;;
46288;SDS011;32022;46.158;14.604;2022-07-29T07:26:58;4.82;;;1.85;;
46288;SDS011;32022;46.158;14.604;2022-07-29T07:29:24;3.03;;;1.70;;
46288;SDS011;32022;46.158;14.604;2022-07-29T07:31:49;5.67;;;1.90;;
46288;SDS011;32022;46.158;14.604;2022-07-29T07:34:14;2.80;;;1.60;;
46288;SDS011;32022;46.158;14.604;2022-07-29T07:36:39;3.03;;;1.50;;
46288;SDS011;32022;46.158;14.604;2022-07-29T07:39:05;2.67;;;1.50;;
46288;SDS011;32022;46.158;14.604;2022-07-29T07:41:30;4.28;;;1.67;;
46288;SDS011;32022;46.158;14.604;2022-07-29T07:43:55;3.13;;;1.58;;
46288;SDS011;32022;46.158;14.604;2022-07-29T07:46:20;3.63;;;1.65;;
46288;SDS011;32022;46.158;14.604;2022-07-29T07:48:46;3.20;;;1.70;;
46288;SDS011;32022;46.158;14.604;2022-07-29T07:51:11;3.40;;;1.77;;
46288;SDS011;32022;46.158;14.604;2022-07-29T07:53:36;3.13;;;1.70;;
46288;SDS011;32022;46.158;14.604;2022-07-29T07:56:01;2.67;;;1.57;;
46288;SDS011;32022;46.158;14.604;2022-07-29T07:58:27;2.55;;;1.45;;
46288;SDS011;32022;46.158;14.604;2022-07-29T08:00:52;3.83;;;1.80;;
46288;SDS011;32022;46.158;14.604;2022-07-29T08:03:17;2.87;;;1.70;;
46288;SDS011;32022;46.158;14.604;2022-07-29T08:05:43;3.27;;;1.87;;
46288;SDS011;32022;46.158;14.604;2022-07-29T08:08:08;3.40;;;1.70;;
46288;SDS011;32022;46.158;14.604;2022-07-29T08:10:33;3.03;;;1.57;;
46288;SDS011;32022;46.158;14.604;2022-07-29T08:13:20;2.58;;;1.60;;
46288;SDS011;32022;46.158;14.604;2022-07-29T08:15:45;3.35;;;1.70;;
46288;SDS011;32022;46.158;14.604;2022-07-29T08:18:13;2.55;;;1.45;;
46288;SDS011;32022;46.158;14.604;2022-07-29T08:20:39;3.20;;;1.65;;
46288;SDS011;32022;46.158;14.604;2022-07-29T08:23:05;2.95;;;1.67;;
46288;SDS011;32022;46.158;14.604;2022-07-29T08:25:31;2.90;;;1.70;;
46288;SDS011;32022;46.158;14.604;2022-07-29T08:27:56;2.90;;;1.60;;
46288;SDS011;32022;46.158;14.604;2022-07-29T08:30:21;2.72;;;1.60;;
46288;SDS011;32022;46.158;14.604;2022-07-29T08:32:47;2.90;;;1.70;;
46288;SDS011;32022;46.158;14.604;2022-07-29T08:35:13;2.55;;;1.42;;
46288;SDS011;32022;46.158;14.604;2022-07-29T08:37:38;3.80;;;1.60;;
46288;SDS011;32022;46.158;14.604;2022-07-29T08:40:04;2.73;;;1.50;;
46288;SDS011;32022;46.158;14.604;2022-07-29T08:42:29;2.85;;;1.50;;
46288;SDS011;32022;46.158;14.604;2022-07-29T08:44:56;3.00;;;1.67;;
46288;SDS011;32022;46.158;14.604;2022-07-29T08:47:21;2.70;;;1.60;;
46288;SDS011;32022;46.158;14.604;2022-07-29T08:49:47;3.00;;;1.75;;
46288;SDS011;32022;46.158;14.604;2022-07-29T08:52:13;2.88;;;1.67;;
46288;SDS011;32022;46.158;14.604;2022-07-29T08:54:39;3.13;;;1.42;;
46288;SDS011;32022;46.158;14.604;2022-07-29T08:57:04;3.10;;;1.40;;
46288;SDS011;32022;46.158;14.604;2022-07-29T08:59:30;2.80;;;1.50;;
46288;SDS011;32022;46.158;14.604;2022-07-29T09:01:56;2.42;;;1.50;;
46288;SDS011;32022;46.158;14.604;2022-07-29T09:04:22;2.53;;;1.50;;
46288;SDS011;32022;46.158;14.604;2022-07-29T09:06:51;2.65;;;1.55;;
46288;SDS011;32022;46.158;14.604;2022-07-29T09:09:16;2.50;;;1.50;;
46288;SDS011;32022;46.158;14.604;2022-07-29T09:11:42;2.20;;;1.20;;
46288;SDS011;32022;46.158;14.604;2022-07-29T09:14:08;2.95;;;1.50;;
46288;SDS011;32022;46.158;14.604;2022-07-29T09:19:35;2.22;;;1.33;;
46288;SDS011;32022;46.158;14.604;2022-07-29T09:22:03;2.88;;;1.52;;
46288;SDS011;32022;46.158;14.604;2022-07-29T09:27:07;2.55;;;1.33;;
46288;SDS011;32022;46.158;14.604;2022-07-29T09:29:33;3.17;;;1.60;;
46288;SDS011;32022;46.158;14.604;2022-07-29T09:31:58;2.22;;;1.40;;
46288;SDS011;32022;46.158;14.604;2022-07-29T09:34:27;2.25;;;1.30;;
46288;SDS011;32022;46.158;14.604;2022-07-29T09:36:56;2.33;;;1.40;;
46288;SDS011;32022;46.158;14.604;2022-07-29T09:39:37;2.47;;;1.45;;
46288;SDS011;32022;46.158;14.604;2022-07-29T09:42:09;2.10;;;1.30;;
46288;SDS011;32022;46.158;14.604;2022-07-29T09:44:45;2.60;;;1.50;;
46288;SDS011;32022;46.158;14.604;2022-07-29T09:47:11;2.25;;;1.25;;
46288;SDS011;32022;46.158;14.604;2022-07-29T09:49:50;2.88;;;1.40;;
46288;SDS011;32022;46.158;14.604;2022-07-29T09:52:15;2.10;;;1.15;;
46288;SDS011;32022;46.158;14.604;2022-07-29T09:54:41;2.27;;;1.30;;
46288;SDS011;32022;46.158;14.604;2022-07-29T09:57:07;2.05;;;1.10;;
46288;SDS011;32022;46.158;14.604;2022-07-29T09:59:37;2.33;;;1.30;;
46288;SDS011;32022;46.158;14.604;2022-07-29T10:02:10;2.55;;;1.30;;
46288;SDS011;32022;46.158;14.604;2022-07-29T10:04:42;2.30;;;1.27;;
46288;SDS011;32022;46.158;14.604;2022-07-29T10:07:07;2.22;;;1.30;;
46288;SDS011;32022;46.158;14.604;2022-07-29T10:09:33;1.92;;;1.20;;
46288;SDS011;32022;46.158;14.604;2022-07-29T10:12:12;2.42;;;1.33;;
46288;SDS011;32022;46.158;14.604;2022-07-29T10:14:41;2.35;;;1.35;;
46288;SDS011;32022;46.158;14.604;2022-07-29T10:17:07;2.10;;;1.20;;
46288;SDS011;32022;46.158;14.604;2022-07-29T10:19:33;2.58;;;1.20;;
46288;SDS011;32022;46.158;14.604;2022-07-29T10:21:59;2.35;;;1.23;;
46288;SDS011;32022;46.158;14.604;2022-07-29T10:24:28;2.30;;;1.10;;
46288;SDS011;32022;46.158;14.604;2022-07-29T10:26:59;2.30;;;1.30;;
46288;SDS011;32022;46.158;14.604;2022-07-29T10:29:24;2.45;;;1.30;;
46288;SDS011;32022;46.158;14.604;2022-07-29T10:34:23;2.88;;;1.55;;
46288;SDS011;32022;46.158;14.604;2022-07-29T10:44:40;2.53;;;1.33;;
46288;SDS011;32022;46.158;14.604;2022-07-29T10:47:06;2.53;;;1.42;;
46288;SDS011;32022;46.158;14.604;2022-07-29T10:49:32;2.92;;;1.40;;
46288;SDS011;32022;46.158;14.604;2022-07-29T10:51:58;2.30;;;1.13;;
46288;SDS011;32022;46.158;14.604;2022-07-29T10:59:23;1.98;;;1.10;;
46288;SDS011;32022;46.158;14.604;2022-07-29T11:01:50;2.97;;;1.23;;
46288;SDS011;32022;46.158;14.604;2022-07-29T11:04:16;2.10;;;1.23;;
46288;SDS011;32022;46.158;14.604;2022-07-29T11:07:06;2.58;;;1.40;;
46288;SDS011;32022;46.158;14.604;2022-07-29T11:09:32;2.30;;;1.35;;
46288;SDS011;32022;46.158;14.604;2022-07-29T11:11:57;2.53;;;1.20;;
46288;SDS011;32022;46.158;14.604;2022-07-29T11:17:06;2.47;;;1.20;;
46288;SDS011;32022;46.158;14.604;2022-07-29T11:19:32;2.20;;;1.20;;
46288;SDS011;32022;46.158;14.604;2022-07-29T11:21:58;2.33;;;1.30;;
46288;SDS011;32022;46.158;14.604;2022-07-29T11:24:24;2.22;;;1.10;;
46288;SDS011;32022;46.158;14.604;2022-07-29T11:29:33;2.22;;;1.10;;
46288;SDS011;32022;46.158;14.604;2022-07-29T11:32:11;2.10;;;1.17;;
46288;SDS011;32022;46.158;14.604;2022-07-29T11:34:36;2.15;;;1.20;;
46288;SDS011;32022;46.158;14.604;2022-07-29T11:39:34;2.28;;;1.27;;
46288;SDS011;32022;46.158;14.604;2022-07-29T11:47:24;1.92;;;1.10;;
46288;SDS011;32022;46.158;14.604;2022-07-29T11:49:50;2.30;;;1.27;;
46288;SDS011;32022;46.158;14.604;2022-07-29T11:52:19;2.40;;;1.30;;
46288;SDS011;32022;46.158;14.604;2022-07-29T11:54:44;3.25;;;1.40;;
46288;SDS011;32022;46.158;14.604;2022-07-29T11:57:12;2.08;;;1.20;;
46288;SDS011;32022;46.158;14.604;2022-07-29T11:59:40;2.50;;;1.40;;
46288;SDS011;32022;46.158;14.604;2022-07-29T12:02:09;2.67;;;1.50;;
46288;SDS011;32022;46.158;14.604;2022-07-29T12:04:56;2.47;;;1.25;;
46288;SDS011;32022;46.158;14.604;2022-07-29T12:07:30;2.33;;;1.30;;
46288;SDS011;32022;46.158;14.604;2022-07-29T12:09:55;2.40;;;1.20;;
46288;SDS011;32022;46.158;14.604;2022-07-29T12:12:21;2.40;;;1.40;;
46288;SDS011;32022;46.158;14.604;2022-07-29T12:14:46;2.13;;;1.27;;
46288;SDS011;32022;46.158;14.604;2022-07-29T12:17:34;2.60;;;1.30;;
46288;SDS011;32022;46.158;14.604;2022-07-29T12:20:00;2.05;;;1.20;;
46288;SDS011;32022;46.158;14.604;2022-07-29T12:22:32;2.78;;;1.30;;
46288;SDS011;32022;46.158;14.604;2022-07-29T12:25:16;2.50;;;1.40;;
46288;SDS011;32022;46.158;14.604;2022-07-29T12:27:43;2.70;;;1.30;;
46288;SDS011;32022;46.158;14.604;2022-07-29T12:30:09;2.72;;;1.38;;
46288;SDS011;32022;46.158;14.604;2022-07-29T12:32:36;2.10;;;1.25;;
46288;SDS011;32022;46.158;14.604;2022-07-29T12:35:02;2.45;;;1.30;;
46288;SDS011;32022;46.158;14.604;2022-07-29T12:37:28;2.30;;;1.42;;
46288;SDS011;32022;46.158;14.604;2022-07-29T12:39:53;2.08;;;1.15;;
46288;SDS011;32022;46.158;14.604;2022-07-29T12:42:19;2.50;;;1.30;;
46288;SDS011;32022;46.158;14.604;2022-07-29T12:44:47;2.30;;;1.35;;
46288;SDS011;32022;46.158;14.604;2022-07-29T12:47:13;2.53;;;1.30;;
46288;SDS011;32022;46.158;14.604;2022-07-29T12:49:39;2.28;;;1.33;;
46288;SDS011;32022;46.158;14.604;2022-07-29T12:52:23;2.45;;;1.40;;
46288;SDS011;32022;46.158;14.604;2022-07-29T12:54:48;2.50;;;1.20;;
46288;SDS011;32022;46.158;14.604;2022-07-29T12:57:14;2.85;;;1.30;;
46288;SDS011;32022;46.158;14.604;2022-07-29T12:59:39;2.47;;;1.40;;
46288;SDS011;32022;46.158;14.604;2022-07-29T13:02:04;2.50;;;1.40;;
46288;SDS011;32022;46.158;14.604;2022-07-29T13:04:30;2.65;;;1.40;;
46288;SDS011;32022;46.158;14.604;2022-07-29T13:06:59;2.50;;;1.42;;
46288;SDS011;32022;46.158;14.604;2022-07-29T13:09:35;2.55;;;1.45;;
46288;SDS011;32022;46.158;14.604;2022-07-29T13:12:00;2.42;;;1.35;;
46288;SDS011;32022;46.158;14.604;2022-07-29T13:19:40;2.40;;;1.30;;
46288;SDS011;32022;46.158;14.604;2022-07-29T13:22:05;2.20;;;1.30;;
46288;SDS011;32022;46.158;14.604;2022-07-29T13:24:31;2.08;;;1.25;;
46288;SDS011;32022;46.158;14.604;2022-07-29T13:26:56;2.28;;;1.27;;
46288;SDS011;32022;46.158;14.604;2022-07-29T13:29:22;2.20;;;1.23;;
46288;SDS011;32022;46.158;14.604;2022-07-29T13:31:48;3.05;;;1.70;;
46288;SDS011;32022;46.158;14.604;2022-07-29T13:34:13;2.17;;;1.33;;
46288;SDS011;32022;46.158;14.604;2022-07-29T13:36:38;2.67;;;1.43;;
46288;SDS011;32022;46.158;14.604;2022-07-29T13:39:03;2.27;;;1.37;;
46288;SDS011;32022;46.158;14.604;2022-07-29T13:41:29;2.60;;;1.48;;
46288;SDS011;32022;46.158;14.604;2022-07-29T13:43:54;3.00;;;1.50;;
46288;SDS011;32022;46.158;14.604;2022-07-29T13:46:20;2.80;;;1.50;;
46288;SDS011;32022;46.158;14.604;2022-07-29T13:48:45;2.17;;;1.20;;
46288;SDS011;32022;46.158;14.604;2022-07-29T13:51:10;2.50;;;1.30;;
46288;SDS011;32022;46.158;14.604;2022-07-29T13:53:35;2.35;;;1.40;;
46288;SDS011;32022;46.158;14.604;2022-07-29T13:56:01;2.40;;;1.43;;
46288;SDS011;32022;46.158;14.604;2022-07-29T13:58:26;2.40;;;1.40;;
46288;SDS011;32022;46.158;14.604;2022-07-29T14:00:51;2.67;;;1.42;;
46288;SDS011;32022;46.158;14.604;2022-07-29T14:03:16;2.67;;;1.50;;
46288;SDS011;32022;46.158;14.604;2022-07-29T14:05:42;2.72;;;1.50;;
46288;SDS011;32022;46.158;14.604;2022-07-29T14:08:07;2.57;;;1.47;;
46288;SDS011;32022;46.158;14.604;2022-07-29T14:10:32;2.50;;;1.40;;
46288;SDS011;32022;46.158;14.604;2022-07-29T14:12:57;2.90;;;1.60;;
46288;SDS011;32022;46.158;14.604;2022-07-29T14:15:23;2.33;;;1.40;;
46288;SDS011;32022;46.158;14.604;2022-07-29T14:17:48;2.80;;;1.60;;
46288;SDS011;32022;46.158;14.604;2022-07-29T14:20:13;2.90;;;1.52;;
46288;SDS011;32022;46.158;14.604;2022-07-29T14:22:40;2.50;;;1.38;;
46288;SDS011;32022;46.158;14.604;2022-07-29T14:25:05;2.63;;;1.70;;
46288;SDS011;32022;46.158;14.604;2022-07-29T14:27:31;2.53;;;1.50;;
46288;SDS011;32022;46.158;14.604;2022-07-29T14:29:56;2.27;;;1.43;;
46288;SDS011;32022;46.158;14.604;2022-07-29T14:32:22;2.80;;;1.60;;
46288;SDS011;32022;46.158;14.604;2022-07-29T14:34:47;3.10;;;1.73;;
46288;SDS011;32022;46.158;14.604;2022-07-29T14:37:12;3.50;;;1.80;;
46288;SDS011;32022;46.158;14.604;2022-07-29T14:39:37;2.67;;;1.57;;
46288;SDS011;32022;46.158;14.604;2022-07-29T14:42:03;3.07;;;1.60;;
46288;SDS011;32022;46.158;14.604;2022-07-29T14:44:28;2.65;;;1.67;;
46288;SDS011;32022;46.158;14.604;2022-07-29T14:46:56;3.65;;;1.80;;
46288;SDS011;32022;46.158;14.604;2022-07-29T14:49:21;2.67;;;1.50;;
46288;SDS011;32022;46.158;14.604;2022-07-29T14:51:47;2.87;;;1.67;;
46288;SDS011;32022;46.158;14.604;2022-07-29T14:54:12;2.70;;;1.40;;
46288;SDS011;32022;46.158;14.604;2022-07-29T14:56:37;3.00;;;1.80;;
46288;SDS011;32022;46.158;14.604;2022-07-29T14:59:02;3.27;;;1.63;;
46288;SDS011;32022;46.158;14.604;2022-07-29T15:01:28;2.78;;;1.63;;
46288;SDS011;32022;46.158;14.604;2022-07-29T15:03:54;2.60;;;1.55;;
46288;SDS011;32022;46.158;14.604;2022-07-29T15:06:19;2.70;;;1.42;;
46288;SDS011;32022;46.158;14.604;2022-07-29T15:08:44;2.53;;;1.55;;
46288;SDS011;32022;46.158;14.604;2022-07-29T15:11:09;2.72;;;1.70;;
46288;SDS011;32022;46.158;14.604;2022-07-29T15:13:35;2.67;;;1.60;;
46288;SDS011;32022;46.158;14.604;2022-07-29T15:16:00;2.73;;;1.50;;
46288;SDS011;32022;46.158;14.604;2022-07-29T15:18:25;2.75;;;1.55;;
46288;SDS011;32022;46.158;14.604;2022-07-29T15:20:51;2.90;;;1.70;;
46288;SDS011;32022;46.158;14.604;2022-07-29T15:23:16;3.27;;;1.80;;